Time;durP1;ratioP1;P1;durP2;ratioP2;P2;SDS_P1;SDS_P2;PMS_P1;PMS_P2;Temp;Humidity;BMP_temperature;BMP_pressure;BME280_temperature;BME280_humidity;BME280_pressure;Samples;Min_cycle;Max_cycle;Signal;HPM_P1;HPM_P2
2023/04/18 00:01:37;;;;;;;14.53;9.87;;;;;;;;;;10336575;28;20062;-88
2023/04/18 00:06:37;;;;;;;13.95;10.02;;;;;;;;;;10369887;28;20042;-88
2023/04/18 00:11:38;;;;;;;13.80;9.27;;;;;;;;;;10360073;28;20077;-82
2023/04/18 00:16:41;;;;;;;13.57;10.07;;;;;;;;;;10344082;28;20042;-91
2023/04/18 00:21:43;;;;;;;17.02;10.52;;;;;;;;;;10369035;28;20107;-91
2023/04/18 00:26:47;;;;;;;15.02;10.23;;;;;;;;;;10394753;28;20026;-87
2023/04/18 00:31:48;;;;;;;13.38;9.30;;;;;;;;;;10356386;28;20046;-81
2023/04/18 00:36:52;;;;;;;;;;;;;;;;;;10337174;28;20049;-82
2023/04/18 00:41:58;;;;;;;12.15;8.65;;;;;;;;;;10330180;28;20640;-83
2023/04/18 00:46:58;;;;;;;12.83;8.73;;;;;;;;;;10307387;28;20061;-84
2023/04/18 00:52:00;;;;;;;14.25;8.50;;;;;;;;;;10327275;28;20069;-83
2023/04/18 00:57:01;;;;;;;14.15;8.50;;;;;;;;;;10349289;28;20042;-90
2023/04/18 01:02:02;;;;;;;13.10;8.65;;;;;;;;;;10329742;28;20080;-89
2023/04/18 01:07:03;;;;;;;13.95;9.18;;;;;;;;;;10327008;28;20074;-88
2023/04/18 01:12:04;;;;;;;11.90;8.32;;;;;;;;;;10322339;28;20043;-88
2023/04/18 01:17:12;;;;;;;11.13;8.10;;;;;;;;;;10288353;28;20047;-86
2023/04/18 01:22:20;;;;;;;12.88;9.02;;;;;;;;;;10308304;28;20058;-85
2023/04/18 01:27:28;;;;;;;12.25;9.00;;;;;;;;;;10322478;28;20091;-86
2023/04/18 01:32:30;;;;;;;14.50;9.15;;;;;;;;;;10323686;28;20168;-84
2023/04/18 01:37:31;;;;;;;13.53;8.23;;;;;;;;;;10342212;28;20038;-92
2023/04/18 01:42:34;;;;;;;13.03;8.73;;;;;;;;;;10353765;28;20045;-89
2023/04/18 01:47:35;;;;;;;11.83;8.87;;;;;;;;;;10364581;28;20053;-85
2023/04/18 01:52:40;;;;;;;14.37;8.67;;;;;;;;;;10362726;28;20296;-85
2023/04/18 01:57:40;;;;;;;12.85;8.10;;;;;;;;;;10347716;28;20106;-85
2023/04/18 02:02:44;;;;;;;14.75;9.23;;;;;;;;;;10338204;28;20050;-89
2023/04/18 02:07:49;;;;;;;14.13;8.68;;;;;;;;;;10389697;28;20099;-89
2023/04/18 02:12:49;;;;;;;12.95;8.50;;;;;;;;;;10408493;28;20057;-88
2023/04/18 02:17:50;;;;;;;12.98;8.60;;;;;;;;;;10373559;28;20046;-88
2023/04/18 02:22:51;;;;;;;13.40;8.57;;;;;;;;;;10377041;28;20069;-88
2023/04/18 02:27:52;;;;;;;12.55;8.27;;;;;;;;;;10368455;28;20299;-87
2023/04/18 02:32:55;;;;;;;12.65;8.25;;;;;;;;;;10359794;28;20117;-87
2023/04/18 02:37:57;;;;;;;13.10;8.45;;;;;;;;;;10352045;28;20053;-87
2023/04/18 02:43:00;;;;;;;12.95;7.90;;;;;;;;;;10346008;28;20038;-92
2023/04/18 02:48:03;;;;;;;11.45;7.88;;;;;;;;;;10367089;28;20120;-87
2023/04/18 02:53:05;;;;;;;10.98;7.82;;;;;;;;;;10317408;28;20065;-81
2023/04/18 02:58:19;;;;;;;13.82;8.93;;;;;;;;;;10310642;28;20054;-85
2023/04/18 03:03:47;;;;;;;13.18;8.93;;;;;;;;;;10371865;28;20041;-90
2023/04/18 03:09:00;;;;;;;11.93;8.43;;;;;;;;;;10345774;28;20034;-87
2023/04/18 03:14:02;;;;;;;13.75;9.32;;;;;;;;;;10307483;28;20096;-86
2023/04/18 03:19:13;;;;;;;12.70;8.32;;;;;;;;;;10310118;28;20088;-85
2023/04/18 03:24:18;;;;;;;12.85;8.40;;;;;;;;;;10310820;28;20058;-86
2023/04/18 03:29:23;;;;;;;11.45;8.38;;;;;;;;;;10312060;28;20046;-85
2023/04/18 03:34:34;;;;;;;13.07;7.82;;;;;;;;;;10376402;28;20026;-85
2023/04/18 03:39:39;;;;;;;13.40;8.20;;;;;;;;;;10335733;28;20050;-88
2023/04/18 03:44:44;;;;;;;11.63;8.17;;;;;;;;;;10349637;28;20050;-89
2023/04/18 03:49:45;;;;;;;11.80;8.63;;;;;;;;;;10330659;28;20125;-84
2023/04/18 03:54:46;;;;;;;12.20;8.57;;;;;;;;;;10322312;28;20057;-82
2023/04/18 03:59:51;;;;;;;14.20;9.07;;;;;;;;;;10302223;28;20066;-85
2023/04/18 04:04:53;;;;;;;14.15;9.10;;;;;;;;;;10305339;28;20082;-85
2023/04/18 04:09:57;;;;;;;12.73;8.95;;;;;;;;;;10358723;28;20030;-86
2023/04/18 04:14:57;;;;;;;12.40;8.60;;;;;;;;;;10375064;28;20057;-85
2023/04/18 04:20:02;;;;;;;14.07;8.88;;;;;;;;;;10373977;28;20053;-85
2023/04/18 04:25:07;;;;;;;14.98;9.55;;;;;;;;;;10378856;28;20103;-82
2023/04/18 04:30:12;;;;;;;15.80;9.43;;;;;;;;;;10358757;28;20030;-84
2023/04/18 04:35:13;;;;;;;14.02;9.13;;;;;;;;;;10372044;28;20051;-87
2023/04/18 04:40:14;;;;;;;15.40;9.63;;;;;;;;;;10347824;28;20106;-86
2023/04/18 04:45:33;;;;;;;15.85;9.60;;;;;;;;;;10440812;22;20050;-85
2023/04/18 04:50:36;;;;;;;17.27;10.05;;;;;;;;;;10353438;28;20118;-85
2023/04/18 04:55:40;;;;;;;16.63;10.07;;;;;;;;;;10357855;28;20290;-86
2023/04/18 05:00:47;;;;;;;16.48;10.15;;;;;;;;;;10372668;28;20081;-86
2023/04/18 05:05:48;;;;;;;16.95;11.00;;;;;;;;;;10335005;28;20505;-85
2023/04/18 05:10:53;;;;;;;16.52;10.20;;;;;;;;;;10341862;28;20037;-84
2023/04/18 05:15:55;;;;;;;16.23;10.00;;;;;;;;;;10315008;28;20058;-84
2023/04/18 05:20:59;;;;;;;17.52;10.48;;;;;;;;;;10322732;28;20042;-85
2023/04/18 05:26:00;;;;;;;17.73;10.07;;;;;;;;;;10329771;28;20451;-85
2023/04/18 05:31:02;;;;;;;17.63;11.02;;;;;;;;;;10330003;28;20039;-84
2023/04/18 05:36:04;;;;;;;19.03;11.03;;;;;;;;;;10330453;28;20042;-84
2023/04/18 05:41:04;;;;;;;20.30;11.13;;;;;;;;;;10385736;28;20233;-87
2023/04/18 05:46:05;;;;;;;22.85;12.70;;;;;;;;;;10390269;28;20041;-83
2023/04/18 05:51:07;;;;;;;17.67;11.68;;;;;;;;;;10421694;28;20054;-78
2023/04/18 05:56:11;;;;;;;15.00;10.38;;;;;;;;;;10390850;28;20073;-85
2023/04/18 06:01:14;;;;;;;21.80;11.55;;;;;;;;;;10360294;28;20809;-87
2023/04/18 06:06:17;;;;;;;18.67;11.88;;;;;;;;;;10381594;28;20584;-82
2023/04/18 06:11:20;;;;;;;18.88;11.02;;;;;;;;;;10364595;28;20038;-78
2023/04/18 06:16:21;;;;;;;21.27;11.43;;;;;;;;;;10358633;28;20406;-77
2023/04/18 06:21:32;;;;;;;17.83;11.43;;;;;;;;;;10372266;28;20065;-87
2023/04/18 06:26:35;;;;;;;19.15;10.27;;;;;;;;;;10363605;28;20042;-86
2023/04/18 06:31:39;;;;;;;20.23;11.45;;;;;;;;;;10340788;28;20038;-85
2023/04/18 06:36:43;;;;;;;17.40;10.40;;;;;;;;;;10350995;28;20050;-84
2023/04/18 06:41:48;;;;;;;17.92;11.18;;;;;;;;;;10363663;28;20058;-86
2023/04/18 06:47:02;;;;;;;17.75;10.30;;;;;;;;;;10364899;28;20046;-86
2023/04/18 06:52:03;;;;;;;16.13;9.70;;;;;;;;;;10399990;28;20056;-86
2023/04/18 07:02:28;;;;;;;16.65;9.65;;;;;;;;;;10285094;28;20280;-88
2023/04/18 07:07:29;;;;;;;15.50;9.93;;;;;;;;;;10282857;28;20044;-86
2023/04/18 07:12:30;;;;;;;15.95;10.30;;;;;;;;;;10283066;28;20043;-84
2023/04/18 07:17:41;;;;;;;;;;;;;;;;;;10501648;23;20070;-90
2023/04/18 07:22:44;;;;;;;14.13;8.88;;;;;;;;;;10280906;28;19918;-84
2023/04/18 07:27:49;;;;;;;13.43;8.73;;;;;;;;;;10294213;28;20119;-89
2023/04/18 07:32:51;;;;;;;12.23;8.32;;;;;;;;;;10273666;28;20074;-86
2023/04/18 07:37:52;;;;;;;12.05;8.50;;;;;;;;;;10320095;28;20060;-88
2023/04/18 07:42:57;;;;;;;11.68;8.10;;;;;;;;;;10383426;28;20049;-87
2023/04/18 07:48:00;;;;;;;14.35;8.07;;;;;;;;;;10415137;28;20037;-87
2023/04/18 07:53:05;;;;;;;12.57;8.60;;;;;;;;;;10367120;28;20030;-86
2023/04/18 07:58:06;;;;;;;12.27;8.80;;;;;;;;;;10375818;28;20045;-86
2023/04/18 08:03:09;;;;;;;12.00;8.23;;;;;;;;;;10364589;28;20060;-85
2023/04/18 08:08:10;;;;;;;11.82;8.02;;;;;;;;;;10366878;28;20034;-87
2023/04/18 08:13:12;;;;;;;12.70;8.85;;;;;;;;;;10347652;28;20030;-87
2023/04/18 08:23:49;;;;;;;13.00;8.50;;;;;;;;;;10301824;26;20050;-87
2023/04/18 08:28:50;;;;;;;10.02;7.72;;;;;;;;;;10325369;28;20046;-84
2023/04/18 08:33:52;;;;;;;11.05;8.23;;;;;;;;;;10342268;28;20045;-85
2023/04/18 08:38:58;;;;;;;9.93;7.57;;;;;;;;;;10340642;28;20053;-87
2023/04/18 08:44:05;;;;;;;8.85;7.35;;;;;;;;;;10344590;28;20050;-87
2023/04/18 08:49:08;;;;;;;9.63;7.63;;;;;;;;;;10353933;28;20038;-85
2023/04/18 08:59:38;;;;;;;9.70;7.40;;;;;;;;;;10556942;23;20066;-84
2023/04/18 09:04:51;;;;;;;8.80;7.10;;;;;;;;;;10326338;28;20449;-84
2023/04/18 09:09:56;;;;;;;8.40;6.65;;;;;;;;;;10304778;28;20035;-85
2023/04/18 09:15:12;;;;;;;8.57;6.63;;;;;;;;;;10356805;28;20050;-90
2023/04/18 09:20:24;;;;;;;9.13;7.28;;;;;;;;;;10409721;22;20053;-87
2023/04/18 09:30:51;;;;;;;6.83;5.03;;;;;;;;;;10497573;22;20063;-88
2023/04/18 09:35:53;;;;;;;6.53;5.68;;;;;;;;;;10293175;28;20055;-87
2023/04/18 09:41:18;;;;;;;6.95;5.68;;;;;;;;;;10288299;28;20035;-86
2023/04/18 09:46:21;;;;;;;5.60;4.95;;;;;;;;;;10264626;28;20073;-86
2023/04/18 09:51:22;;;;;;;5.80;4.97;;;;;;;;;;10332854;28;20050;-91
2023/04/18 09:56:26;;;;;;;6.97;5.35;;;;;;;;;;10382875;28;20053;-86
2023/04/18 10:01:27;;;;;;;5.90;5.05;;;;;;;;;;10373512;28;20022;-86
2023/04/18 10:06:27;;;;;;;7.18;5.03;;;;;;;;;;10413540;23;20061;-86
2023/04/18 10:11:31;;;;;;;7.68;4.90;;;;;;;;;;10310346;28;20522;-85
2023/04/18 10:16:38;;;;;;;6.13;5.03;;;;;;;;;;10694903;22;20089;-88
2023/04/18 10:21:49;;;;;;;6.88;5.15;;;;;;;;;;10324901;28;20062;-86
2023/04/18 10:26:55;;;;;;;5.82;4.70;;;;;;;;;;10348570;28;20043;-86
2023/04/18 10:37:21;;;;;;;7.10;5.13;;;;;;;;;;10445413;22;20061;-87
2023/04/18 10:42:23;;;;;;;;;;;;;;;;;;10332184;28;20062;-85
2023/04/18 10:47:25;;;;;;;6.55;5.00;;;;;;;;;;10365336;28;19912;-87
2023/04/18 10:52:26;;;;;;;8.63;5.63;;;;;;;;;;10368164;28;20033;-86
2023/04/18 10:57:38;;;;;;;6.70;5.30;;;;;;;;;;10367237;28;20325;-86
2023/04/18 11:02:39;;;;;;;7.35;5.53;;;;;;;;;;10354786;28;20053;-86
2023/04/18 11:07:48;;;;;;;7.45;5.78;;;;;;;;;;10349165;28;20097;-86
2023/04/18 11:12:51;;;;;;;7.20;5.68;;;;;;;;;;10351325;28;20068;-90
2023/04/18 11:17:59;;;;;;;9.02;6.30;;;;;;;;;;10358197;28;20042;-87
2023/04/18 11:23:01;;;;;;;6.70;5.85;;;;;;;;;;10365000;28;20054;-85
2023/04/18 11:28:02;;;;;;;8.68;6.28;;;;;;;;;;10374633;22;20054;-87
2023/04/18 11:33:10;;;;;;;7.78;5.43;;;;;;;;;;10314937;28;20055;-85
2023/04/18 11:38:15;;;;;;;8.60;6.70;;;;;;;;;;10364047;28;20485;-84
2023/04/18 11:43:21;;;;;;;7.53;6.40;;;;;;;;;;10363239;28;20065;-86
2023/04/18 11:48:23;;;;;;;8.80;6.70;;;;;;;;;;10389293;28;20106;-87
2023/04/18 11:53:34;;;;;;;7.45;6.03;;;;;;;;;;10391793;28;20315;-84
2023/04/18 11:59:07;;;;;;;;;;;;;;;;;;;;;
2023/04/18 12:09:32;;;;;;;;;;;;;;;;;;11046068;22;19910;-82
2023/04/18 12:14:37;;;;;;;9.32;7.10;;;;;;;;;;10379315;28;19918;-84
2023/04/18 12:19:49;;;;;;;8.38;6.90;;;;;;;;;;10338533;28;20447;-82
2023/04/18 12:25:07;;;;;;;7.70;6.35;;;;;;;;;;10335022;28;20057;-84
2023/04/18 12:30:32;;;;;;;8.63;7.47;;;;;;;;;;10331884;28;20068;-88
2023/04/18 12:35:33;;;;;;;8.63;6.10;;;;;;;;;;10364980;28;20114;-88
2023/04/18 12:40:34;;;;;;;8.05;6.80;;;;;;;;;;10353978;28;20038;-89
2023/04/18 12:45:34;;;;;;;7.85;6.75;;;;;;;;;;10357281;28;20042;-87
2023/04/18 12:50:42;;;;;;;8.45;7.30;;;;;;;;;;10590753;23;20034;-86
2023/04/18 12:55:43;;;;;;;7.13;6.15;;;;;;;;;;10394555;23;20076;-84
2023/04/18 13:00:49;;;;;;;6.43;5.78;;;;;;;;;;10479519;22;20145;-88
2023/04/18 13:05:52;;;;;;;7.40;6.18;;;;;;;;;;10551791;23;20063;-86
2023/04/18 13:10:52;;;;;;;6.80;5.50;;;;;;;;;;10207995;28;20058;-84
2023/04/18 13:21:30;;;;;;;7.20;6.13;;;;;;;;;;10275060;28;20100;-85
2023/04/18 13:31:53;;;;;;;8.15;6.93;;;;;;;;;;10315717;28;20059;-85
2023/04/18 13:36:53;;;;;;;9.23;7.00;;;;;;;;;;10320902;28;20031;-85
2023/04/18 13:41:54;;;;;;;9.90;7.13;;;;;;;;;;10313655;28;20035;-86
2023/04/18 13:46:55;;;;;;;7.18;6.45;;;;;;;;;;10301682;28;20282;-86
2023/04/18 13:51:56;;;;;;;10.15;6.97;;;;;;;;;;10297271;28;20055;-83
2023/04/18 13:56:57;;;;;;;8.77;6.72;;;;;;;;;;10286901;28;20097;-86
2023/04/18 14:01:58;;;;;;;8.57;6.43;;;;;;;;;;10297909;28;20669;-86
2023/04/18 14:06:58;;;;;;;9.85;6.90;;;;;;;;;;10292705;28;20050;-85
2023/04/18 14:11:59;;;;;;;9.90;7.07;;;;;;;;;;10305545;28;20036;-85
2023/04/18 14:16:59;;;;;;;7.07;6.10;;;;;;;;;;10326645;28;20099;-84
2023/04/18 14:22:11;;;;;;;9.70;7.47;;;;;;;;;;10326900;28;20086;-87
2023/04/18 14:27:12;;;;;;;8.48;7.28;;;;;;;;;;10295163;28;20568;-85
2023/04/18 14:32:15;;;;;;;8.53;6.77;;;;;;;;;;10327187;28;20046;-84
2023/04/18 14:37:15;;;;;;;;;;;;;;;;;;10362678;28;20347;-85
2023/04/18 14:42:17;;;;;;;8.52;7.35;;;;;;;;;;10393368;28;19925;-84
2023/04/18 14:47:17;;;;;;;8.25;6.65;;;;;;;;;;10363397;28;20132;-84
2023/04/18 14:52:19;;;;;;;8.27;6.87;;;;;;;;;;10371828;28;20126;-88
2023/04/18 14:57:20;;;;;;;8.82;7.03;;;;;;;;;;10449777;22;20066;-90
2023/04/18 15:02:30;;;;;;;9.55;6.80;;;;;;;;;;10332035;28;20050;-83
2023/04/18 15:07:30;;;;;;;10.30;7.17;;;;;;;;;;10322170;28;20129;-84
2023/04/18 15:12:31;;;;;;;8.97;7.33;;;;;;;;;;10320669;28;20315;-83
2023/04/18 15:17:32;;;;;;;9.52;7.25;;;;;;;;;;10317090;28;20325;-83
2023/04/18 15:22:33;;;;;;;9.23;7.20;;;;;;;;;;10338666;28;20085;-84
2023/04/18 15:27:34;;;;;;;8.63;6.97;;;;;;;;;;10315173;28;20062;-85
2023/04/18 15:32:35;;;;;;;9.13;6.63;;;;;;;;;;10324366;28;20025;-84
2023/04/18 15:37:36;;;;;;;9.60;6.95;;;;;;;;;;10335026;28;20065;-85
2023/04/18 15:42:37;;;;;;;8.63;6.53;;;;;;;;;;10343009;28;20046;-85
2023/04/18 15:47:51;;;;;;;8.98;7.07;;;;;;;;;;10334686;28;20122;-86
2023/04/18 15:52:52;;;;;;;8.10;6.90;;;;;;;;;;11155577;22;20145;-87
2023/04/18 16:24:51;;;;;;;12.55;8.73;;;;;;;;;;10375758;28;20086;-86
2023/04/18 16:29:58;;;;;;;11.10;7.90;;;;;;;;;;10877431;23;21587;-85
2023/04/18 16:40:33;;;;;;;12.93;8.60;;;;;;;;;;10265180;28;20395;-85
2023/04/18 16:45:35;;;;;;;11.75;8.38;;;;;;;;;;10284322;28;20377;-86
2023/04/18 16:50:44;;;;;;;12.40;8.38;;;;;;;;;;10293881;28;20074;-86
2023/04/18 16:55:53;;;;;;;11.43;8.15;;;;;;;;;;10323652;28;20054;-87
2023/04/18 17:00:53;;;;;;;12.60;8.80;;;;;;;;;;10314230;28;20107;-84
2023/04/18 17:05:55;;;;;;;11.60;8.65;;;;;;;;;;10307033;28;20330;-87
2023/04/18 17:10:58;;;;;;;14.57;9.43;;;;;;;;;;10293078;28;20035;-86
2023/04/18 17:16:02;;;;;;;;;;;;;;;;;;10309313;28;20039;-85
2023/04/18 17:21:02;;;;;;;14.83;9.47;;;;;;;;;;10297645;28;19922;-83
2023/04/18 17:26:02;;;;;;;12.95;9.48;;;;;;;;;;10294924;28;20507;-83
2023/04/18 17:31:03;;;;;;;13.63;9.07;;;;;;;;;;10323213;28;20186;-85
2023/04/18 17:36:06;;;;;;;14.00;9.27;;;;;;;;;;10324646;28;20043;-86
2023/04/18 17:41:07;;;;;;;16.35;10.52;;;;;;;;;;10311996;28;20058;-83
2023/04/18 17:46:10;;;;;;;16.23;9.90;;;;;;;;;;10290760;28;20066;-83
2023/04/18 17:51:10;;;;;;;19.47;10.80;;;;;;;;;;10291001;28;20393;-82
2023/04/18 17:56:12;;;;;;;16.17;10.05;;;;;;;;;;10285190;28;20047;-81
2023/04/18 18:01:13;;;;;;;16.23;10.00;;;;;;;;;;10281831;28;20651;-84
2023/04/18 18:06:15;;;;;;;17.17;11.07;;;;;;;;;;10281130;28;20078;-83
2023/04/18 18:11:15;;;;;;;15.27;9.53;;;;;;;;;;10284847;28;20041;-81
2023/04/18 18:16:16;;;;;;;13.33;9.00;;;;;;;;;;10287936;28;20785;-89
2023/04/18 18:21:18;;;;;;;15.82;9.43;;;;;;;;;;10300150;28;20290;-83
2023/04/18 18:26:18;;;;;;;17.95;10.30;;;;;;;;;;10294542;28;20058;-79
2023/04/18 18:31:21;;;;;;;14.10;9.40;;;;;;;;;;10290386;28;20584;-83
2023/04/18 18:36:22;;;;;;;17.05;10.60;;;;;;;;;;10302544;28;20043;-86
2023/04/18 18:41:29;;;;;;;16.48;10.35;;;;;;;;;;10289650;28;20110;-85
2023/04/18 18:46:31;;;;;;;16.27;10.73;;;;;;;;;;10299107;28;20058;-82
2023/04/18 18:51:32;;;;;;;17.38;10.45;;;;;;;;;;10298617;28;20042;-85
2023/04/18 18:56:33;;;;;;;17.40;10.73;;;;;;;;;;10283746;28;20138;-83
2023/04/18 19:01:34;;;;;;;16.88;9.85;;;;;;;;;;10281723;28;20054;-83
2023/04/18 19:06:37;;;;;;;;;;;;;;;;;;10291423;28;20690;-82
2023/04/18 19:11:38;;;;;;;15.95;9.80;;;;;;;;;;10286908;28;20406;-81
2023/04/18 19:16:39;;;;;;;13.73;9.63;;;;;;;;;;10298314;28;20065;-85
2023/04/18 19:21:44;;;;;;;15.80;9.77;;;;;;;;;;10299304;28;20054;-78
2023/04/18 19:26:45;;;;;;;15.75;9.88;;;;;;;;;;10298843;28;20055;-84
2023/04/18 19:31:47;;;;;;;13.20;9.25;;;;;;;;;;10270290;28;20042;-81
2023/04/18 19:58:47;;;;;;;16.33;10.48;;;;;;;;;;10283525;23;20055;-89
2023/04/18 20:03:48;;;;;;;14.23;8.90;;;;;;;;;;10284287;28;20038;-89
2023/04/18 20:08:49;;;;;;;15.30;9.63;;;;;;;;;;10329667;23;20043;-89
2023/04/18 20:13:55;;;;;;;14.88;9.90;;;;;;;;;;10295844;28;20043;-87
2023/04/18 20:24:15;;;;;;;13.52;9.25;;;;;;;;;;10276480;28;20059;-87
2023/04/18 20:29:34;;;;;;;14.13;9.27;;;;;;;;;;10277570;28;20065;-84
2023/04/18 20:34:36;;;;;;;13.32;9.25;;;;;;;;;;10267046;28;20081;-83
2023/04/18 20:39:38;;;;;;;15.97;10.33;;;;;;;;;;10248790;28;20555;-85
2023/04/18 20:44:42;;;;;;;14.20;9.65;;;;;;;;;;10257248;28;20059;-85
2023/04/18 20:49:44;;;;;;;13.57;9.88;;;;;;;;;;10272978;28;20058;-84
2023/04/18 20:54:49;;;;;;;14.27;9.75;;;;;;;;;;10255636;28;20039;-85
2023/04/18 20:59:51;;;;;;;15.07;9.50;;;;;;;;;;10248782;28;20055;-84
2023/04/18 21:04:55;;;;;;;15.13;9.73;;;;;;;;;;10270006;28;20048;-86
2023/04/18 21:09:56;;;;;;;13.38;10.40;;;;;;;;;;10241430;29;20063;-85
2023/04/18 21:14:57;;;;;;;15.48;9.55;;;;;;;;;;10263685;28;20039;-88
2023/04/18 21:20:02;;;;;;;15.60;9.80;;;;;;;;;;10262200;28;20804;-83
2023/04/18 21:25:08;;;;;;;14.13;9.32;;;;;;;;;;10232941;29;20066;-83
2023/04/18 21:30:09;;;;;;;15.20;8.90;;;;;;;;;;10252802;29;20096;-85
2023/04/18 21:35:10;;;;;;;14.77;8.88;;;;;;;;;;10237231;29;20049;-85
2023/04/18 21:40:13;;;;;;;13.25;9.23;;;;;;;;;;10213257;29;20056;-86
2023/04/18 21:45:18;;;;;;;12.73;9.23;;;;;;;;;;10197156;29;20080;-84
2023/04/18 21:50:19;;;;;;;13.77;8.30;;;;;;;;;;10216649;29;20052;-84
2023/04/18 21:55:21;;;;;;;11.80;8.10;;;;;;;;;;10235466;28;20051;-88
2023/04/18 22:00:23;;;;;;;11.48;8.18;;;;;;;;;;10268730;28;20091;-90
2023/04/18 22:16:12;;;;;;;14.32;8.57;;;;;;;;;;10490271;23;20294;-86
2023/04/18 22:21:34;;;;;;;13.95;9.05;;;;;;;;;;10345110;28;20070;-86
2023/04/18 22:26:43;;;;;;;12.55;7.90;;;;;;;;;;10336085;28;20118;-87
2023/04/18 22:32:07;;;;;;;14.43;8.68;;;;;;;;;;10341768;28;20038;-87
2023/04/18 22:37:12;;;;;;;15.85;9.75;;;;;;;;;;10348077;28;20093;-87
2023/04/18 22:47:43;;;;;;;13.88;8.93;;;;;;;;;;10299699;23;20043;-84
2023/04/18 22:52:44;;;;;;;10.98;7.85;;;;;;;;;;10306859;28;20082;-87
2023/04/18 22:57:54;;;;;;;11.85;7.95;;;;;;;;;;10308232;28;20031;-87
2023/04/18 23:03:12;;;;;;;12.38;7.70;;;;;;;;;;10304718;28;20042;-89
2023/04/18 23:08:24;;;;;;;10.65;7.90;;;;;;;;;;10305584;28;20027;-82
2023/04/18 23:18:42;;;;;;;12.13;8.05;;;;;;;;;;10274237;28;20038;-83
2023/04/18 23:23:50;;;;;;;14.90;8.40;;;;;;;;;;10251958;28;20063;-84
2023/04/18 23:28:52;;;;;;;13.85;8.57;;;;;;;;;;10284745;28;20049;-90
2023/04/18 23:33:55;;;;;;;14.65;8.50;;;;;;;;;;10275319;28;20054;-86
2023/04/18 23:44:21;;;;;;;12.57;8.55;;;;;;;;;;10271097;28;20051;-91
